Time;durP1;ratioP1;P1;durP2;ratioP2;P2;SDS_P1;SDS_P2;PMS_P1;PMS_P2;Temp;Humidity;BMP_temperature;BMP_pressure;BME280_temperature;BME280_humidity;BME280_pressure;Samples;Min_cycle;Max_cycle;Signal;HPM_P1;HPM_P2
2024/01/09 00:00:52;;;;;;;19.77;13.40;;;-4.20;99.90;;;;;;6168987;23;20184;-79
2024/01/09 00:03:32;;;;;;;17.13;13.30;;;-4.20;99.90;;;;;;6168731;23;20447;-78
2024/01/09 00:06:19;;;;;;;17.40;13.20;;;-4.20;99.90;;;;;;6167282;23;20480;-78
2024/01/09 00:09:07;;;;;;;19.60;13.50;;;-4.20;99.90;;;;;;6166871;23;20409;-78
2024/01/09 00:11:39;;;;;;;20.17;14.07;;;-4.30;99.90;;;;;;6166817;23;20430;-78
2024/01/09 00:14:15;;;;;;;18.70;13.30;;;-4.30;99.90;;;;;;6168446;23;20408;-77
2024/01/09 00:16:51;;;;;;;18.00;13.30;;;-4.30;99.90;;;;;;6168901;23;20411;-77
2024/01/09 00:19:21;;;;;;;15.10;13.50;;;-4.30;99.90;;;;;;6170587;23;20388;-77
2024/01/09 00:21:52;;;;;;;17.13;14.17;;;-4.30;99.90;;;;;;6169348;23;20431;-78
2024/01/09 00:24:25;;;;;;;18.20;14.80;;;-4.60;99.90;;;;;;6164230;23;20511;-77
2024/01/09 00:27:04;;;;;;;22.42;14.52;;;-4.30;99.90;;;;;;6158907;23;20412;-76
2024/01/09 00:29:35;;;;;;;19.27;14.57;;;-4.30;99.90;;;;;;6159302;23;20550;-78
2024/01/09 00:32:06;;;;;;;21.17;15.05;;;-4.30;99.90;;;;;;6157378;23;20483;-78
2024/01/09 00:34:39;;;;;;;18.70;14.18;;;-4.30;99.90;;;;;;6156882;23;20173;-78
2024/01/09 00:37:10;;;;;;;17.17;14.07;;;-4.30;99.90;;;;;;6157783;23;20170;-78
2024/01/09 00:39:41;;;;;;;17.38;13.57;;;-4.40;99.90;;;;;;6158260;23;20418;-77
2024/01/09 00:42:18;;;;;;;22.95;14.40;;;-4.40;99.90;;;;;;6161932;23;20189;-77
2024/01/09 00:44:51;;;;;;;15.75;12.90;;;-4.40;99.90;;;;;;6166318;23;20192;-77
2024/01/09 00:47:29;;;;;;;17.55;12.95;;;-4.30;99.90;;;;;;6166291;23;20256;-78
2024/01/09 00:50:01;;;;;;;21.60;15.15;;;-4.40;99.90;;;;;;6162036;23;20255;-78
2024/01/09 00:52:35;;;;;;;18.90;13.80;;;-4.40;99.90;;;;;;6161356;23;20203;-77
2024/01/09 00:55:12;;;;;;;19.98;14.05;;;-4.70;99.90;;;;;;6161591;23;20204;-78
2024/01/09 00:57:42;;;;;;;17.35;13.95;;;-4.40;99.90;;;;;;6160607;23;20174;-78
2024/01/09 01:00:14;;;;;;;19.53;14.53;;;-4.40;99.90;;;;;;6160965;23;20188;-78
2024/01/09 01:05:47;;;;;;;19.60;14.80;;;-4.40;99.90;;;;;;6161432;23;20408;-78
2024/01/09 01:08:23;;;;;;;18.20;14.80;;;-4.50;99.90;;;;;;6165568;23;20420;-77
2024/01/09 01:11:01;;;;;;;19.37;14.53;;;-4.50;99.90;;;;;;6160227;23;20415;-77
2024/01/09 01:13:35;;;;;;;22.27;14.40;;;-4.50;99.90;;;;;;6158361;23;20494;-77
2024/01/09 01:16:18;;;;;;;17.75;13.75;;;-4.40;99.90;;;;;;6158236;23;20500;-78
2024/01/09 01:18:59;;;;;;;16.80;14.20;;;-4.20;99.90;;;;;;6159767;23;20172;-79
2024/01/09 01:21:38;;;;;;;18.75;13.63;;;-4.50;99.90;;;;;;6160950;23;20436;-78
2024/01/09 01:24:14;;;;;;;19.85;14.27;;;-4.50;99.90;;;;;;6160046;23;20192;-77
2024/01/09 01:26:55;;;;;;;22.97;13.40;;;-4.50;99.90;;;;;;6159906;23;20168;-78
2024/01/09 01:29:41;;;;;;;16.45;13.13;;;-4.50;99.90;;;;;;6160896;23;20422;-77
2024/01/09 01:32:13;;;;;;;17.87;13.70;;;-4.50;99.90;;;;;;6161385;23;20196;-78
2024/01/09 01:34:54;;;;;;;16.77;12.88;;;-4.50;99.90;;;;;;6161445;23;20404;-76
2024/01/09 01:37:35;;;;;;;19.90;14.15;;;-4.80;99.90;;;;;;6162799;23;20177;-77
2024/01/09 01:40:08;;;;;;;16.02;12.95;;;-4.50;99.90;;;;;;6162635;23;20184;-78
2024/01/09 01:43:01;;;;;;;21.63;14.65;;;-4.50;99.90;;;;;;6160928;23;20201;-78
2024/01/09 01:45:38;;;;;;;17.43;14.33;;;-4.60;99.90;;;;;;6161566;23;20172;-78
2024/01/09 01:48:15;;;;;;;20.80;14.97;;;-4.30;99.90;;;;;;6161165;23;20424;-77
2024/01/09 01:51:02;;;;;;;19.37;14.20;;;-4.50;99.90;;;;;;6162281;23;20582;-78
2024/01/09 01:54:03;;;;;;;21.63;14.10;;;-4.60;99.90;;;;;;6161381;23;20495;-78
2024/01/09 01:56:37;;;;;;;18.13;13.48;;;-4.50;99.90;;;;;;6155421;23;20503;-78
2024/01/09 01:59:13;;;;;;;21.33;14.30;;;-4.50;99.90;;;;;;6159142;23;20286;-77
2024/01/09 02:01:54;;;;;;;18.27;14.73;;;-4.60;99.90;;;;;;6157208;23;20196;-77
2024/01/09 02:04:40;;;;;;;17.48;13.82;;;-4.60;99.90;;;;;;6156789;23;20444;-77
2024/01/09 02:07:17;;;;;;;21.38;14.77;;;-4.60;99.90;;;;;;6158141;23;20176;-78
2024/01/09 02:10:04;;;;;;;17.63;13.88;;;-4.60;99.90;;;;;;6157190;23;20687;-79
2024/01/09 02:12:47;;;;;;;19.27;14.60;;;-4.60;99.90;;;;;;6156445;23;20192;-78
2024/01/09 02:15:29;;;;;;;22.25;14.18;;;-4.60;99.90;;;;;;6157511;23;20431;-77
2024/01/09 02:18:13;;;;;;;17.98;14.75;;;-4.60;99.90;;;;;;6157416;23;20173;-79
2024/01/09 02:20:48;;;;;;;18.90;13.57;;;-4.60;99.90;;;;;;6158066;23;20176;-80
2024/01/09 02:23:30;;;;;;;18.13;14.60;;;-4.60;99.90;;;;;;6158243;23;20199;-78
2024/01/09 02:26:04;;;;;;;20.65;14.77;;;-4.60;99.90;;;;;;6158149;23;20172;-78
2024/01/09 02:28:46;;;;;;;18.73;13.40;;;-4.40;99.90;;;;;;6156587;23;20664;-77
2024/01/09 02:31:27;;;;;;;17.75;14.57;;;-4.70;99.90;;;;;;6156558;23;20613;-78
2024/01/09 02:34:07;;;;;;;20.50;14.73;;;-4.70;99.90;;;;;;6156580;23;20172;-78
2024/01/09 02:36:50;;;;;;;16.15;13.32;;;-5.00;99.90;;;;;;6162695;23;20417;-78
2024/01/09 02:39:38;;;;;;;20.20;14.30;;;-4.70;99.90;;;;;;6166057;23;20191;-78
2024/01/09 02:42:20;;;;;;;20.30;12.93;;;-4.90;99.90;;;;;;6166293;23;20223;-80
2024/01/09 02:45:16;;;;;;;17.85;13.48;;;-4.70;99.90;;;;;;6158853;23;20185;-78
2024/01/09 02:48:06;;;;;;;16.10;13.98;;;-4.70;99.90;;;;;;6157027;23;20176;-78
2024/01/09 02:53:54;;;;;;;16.63;12.93;;;-4.70;99.90;;;;;;6156758;23;20207;-78
2024/01/09 02:56:32;;;;;;;16.25;13.10;;;-4.70;99.90;;;;;;6155391;23;20566;-77
2024/01/09 02:59:26;;;;;;;16.98;13.20;;;-4.70;99.90;;;;;;6156569;23;20175;-78
2024/01/09 03:02:03;;;;;;;17.45;13.13;;;-4.80;99.90;;;;;;6156653;23;20235;-78
2024/01/09 03:05:00;;;;;;;16.65;13.55;;;-4.70;99.90;;;;;;6156739;23;20193;-78
2024/01/09 03:07:52;;;;;;;19.10;13.35;;;-4.70;99.90;;;;;;6156332;23;20242;-77
2024/01/09 03:10:33;;;;;;;20.33;12.48;;;-4.70;99.90;;;;;;6157738;23;20196;-76
2024/01/09 03:13:09;;;;;;;20.27;13.13;;;-4.80;99.90;;;;;;6157795;23;20224;-78
2024/01/09 03:15:52;;;;;;;17.02;13.48;;;-4.80;99.90;;;;;;6157634;23;20235;-77
2024/01/09 03:18:32;;;;;;;16.70;13.00;;;-4.80;99.90;;;;;;6157715;23;20251;-78
2024/01/09 03:21:12;;;;;;;17.88;13.77;;;-4.80;99.90;;;;;;6157952;23;20412;-78
2024/01/09 03:23:46;;;;;;;18.30;13.02;;;-5.10;99.90;;;;;;6157113;23;20196;-77
2024/01/09 03:26:18;;;;;;;15.90;13.07;;;-4.80;99.90;;;;;;6157617;23;20226;-78
2024/01/09 03:28:59;;;;;;;15.57;11.67;;;-4.80;99.90;;;;;;6158573;23;20173;-78
2024/01/09 03:31:43;;;;;;;18.67;13.38;;;-4.80;99.90;;;;;;6161058;23;20494;-77
2024/01/09 03:34:17;;;;;;;18.00;14.00;;;-4.80;99.90;;;;;;6160252;23;20157;-76
2024/01/09 03:36:59;;;;;;;18.80;13.52;;;-4.80;99.90;;;;;;6158738;23;20233;-77
2024/01/09 03:39:31;;;;;;;20.27;13.93;;;-5.10;99.90;;;;;;6157785;23;20177;-80
2024/01/09 03:42:06;;;;;;;14.55;12.38;;;-4.70;99.90;;;;;;6160357;23;20381;-77
2024/01/09 03:44:45;;;;;;;20.90;13.40;;;-4.80;99.90;;;;;;6159671;23;20188;-77
2024/01/09 03:47:40;;;;;;;21.42;13.27;;;-5.10;99.90;;;;;;6159280;23;20172;-78
2024/01/09 03:50:26;;;;;;;19.80;13.40;;;-4.80;99.90;;;;;;6158615;23;20212;-78
2024/01/09 03:53:08;;;;;;;17.33;12.93;;;-4.80;99.90;;;;;;6157211;23;20218;-77
2024/01/09 03:55:54;;;;;;;20.60;13.75;;;-5.20;99.90;;;;;;6156499;23;20285;-78
2024/01/09 03:58:52;;;;;;;16.88;12.90;;;-4.80;99.90;;;;;;6156789;23;20172;-77
2024/01/09 04:01:30;;;;;;;16.90;13.48;;;-4.80;99.90;;;;;;6146959;23;20224;-77
2024/01/09 04:04:10;;;;;;;17.92;14.43;;;-4.80;99.90;;;;;;6155898;23;20199;-77
2024/01/09 04:06:58;;;;;;;17.85;12.57;;;-5.10;99.90;;;;;;6156184;23;20252;-79
2024/01/09 04:09:47;;;;;;;20.38;13.57;;;-4.80;99.90;;;;;;6156408;23;20173;-78
2024/01/09 04:12:26;;;;;;;20.70;13.10;;;-4.80;99.90;;;;;;6156563;23;20251;-78
2024/01/09 04:15:00;;;;;;;21.63;12.60;;;-4.80;99.90;;;;;;6155950;23;20419;-77
2024/01/09 04:17:59;;;;;;;15.60;12.88;;;-4.90;99.90;;;;;;6156923;23;20195;-78
2024/01/09 04:20:46;;;;;;;21.27;12.55;;;-4.90;99.90;;;;;;6157685;23;20616;-77
2024/01/09 04:23:19;;;;;;;18.67;13.37;;;-4.60;99.90;;;;;;6157324;23;20173;-77
2024/01/09 04:25:57;;;;;;;15.30;12.60;;;-5.20;99.90;;;;;;6157411;23;20436;-77
2024/01/09 04:28:31;;;;;;;16.70;12.20;;;-4.90;99.90;;;;;;6157644;23;20179;-76
2024/01/09 04:31:08;;;;;;;19.08;12.88;;;-4.70;99.90;;;;;;6160469;23;20173;-78
2024/01/09 04:33:50;;;;;;;17.13;12.63;;;-4.90;99.90;;;;;;6161225;23;20219;-79
2024/01/09 04:36:22;;;;;;;18.40;12.23;;;-4.90;99.90;;;;;;6159578;23;20173;-77
2024/01/09 04:38:58;;;;;;;15.35;11.63;;;-4.90;99.90;;;;;;6160199;23;20177;-77
2024/01/09 04:41:32;;;;;;;18.05;12.90;;;-4.90;99.90;;;;;;6159180;23;20279;-78
2024/01/09 04:44:13;;;;;;;15.38;12.65;;;-5.20;99.90;;;;;;6159218;23;20199;-78
2024/01/09 04:46:51;;;;;;;17.42;13.10;;;-4.90;99.90;;;;;;6160660;23;20242;-77
2024/01/09 04:49:23;;;;;;;16.80;12.05;;;-4.90;99.90;;;;;;6162616;23;20191;-79
2024/01/09 04:52:12;;;;;;;14.23;12.40;;;-4.90;99.90;;;;;;6166462;23;20199;-77
2024/01/09 04:55:04;;;;;;;13.73;11.07;;;-4.90;99.90;;;;;;6167032;23;20173;-78
2024/01/09 04:57:42;;;;;;;16.63;12.38;;;-4.90;99.90;;;;;;6170127;23;20258;-77
2024/01/09 05:00:19;;;;;;;17.33;11.23;;;-4.90;99.90;;;;;;6164064;23;20172;-77
2024/01/09 05:05:51;;;;;;;17.60;11.98;;;-4.90;99.90;;;;;;6157336;23;20196;-78
2024/01/09 05:08:43;;;;;;;19.40;11.98;;;-4.90;99.90;;;;;;6160339;23;20180;-78
2024/01/09 05:11:28;;;;;;;17.25;11.52;;;-4.90;99.90;;;;;;6159798;23;20189;-77
2024/01/09 05:14:16;;;;;;;;;;;;;;;;;;;;;
2024/01/09 05:17:18;;;;;;;14.30;10.82;;;-4.90;99.90;;;;;;6158836;23;20172;-78
2024/01/09 05:20:07;;;;;;;;;;;;;;;;;;;;;
2024/01/09 05:22:48;;;;;;;14.32;11.55;;;-5.00;99.90;;;;;;6163485;23;20211;-78
2024/01/09 05:25:27;;;;;;;15.40;11.63;;;-5.30;99.90;;;;;;6159012;23;20633;-77
2024/01/09 05:28:29;;;;;;;16.38;11.02;;;-5.30;99.90;;;;;;6158132;23;20172;-77
2024/01/09 05:31:27;;;;;;;15.43;11.48;;;-5.00;99.90;;;;;;6158717;23;20174;-79
2024/01/09 05:34:24;;;;;;;16.48;12.15;;;-4.90;99.90;;;;;;6157867;23;20199;-77
2024/01/09 05:37:18;;;;;;;18.80;11.35;;;-4.90;99.90;;;;;;6158160;23;20172;-78
2024/01/09 05:40:23;;;;;;;15.20;11.25;;;-5.00;99.90;;;;;;6161035;23;20182;-80
2024/01/09 05:43:17;;;;;;;19.88;12.10;;;-4.90;99.90;;;;;;6162141;23;20223;-81
2024/01/09 05:49:31;;;;;;;17.08;11.52;;;-5.00;99.90;;;;;;6160485;23;20194;-81
2024/01/09 05:52:29;;;;;;;18.90;11.85;;;-5.30;99.90;;;;;;6163433;23;20200;-78
2024/01/09 05:55:19;;;;;;;14.98;11.93;;;-5.00;99.90;;;;;;6162411;23;20200;-78
2024/01/09 05:58:17;;;;;;;18.88;12.88;;;-5.00;99.90;;;;;;6159543;23;20685;-78
2024/01/09 06:01:05;;;;;;;13.88;10.90;;;-5.00;99.90;;;;;;6157547;23;20168;-77
2024/01/09 06:03:51;;;;;;;16.98;12.20;;;-5.00;99.90;;;;;;6158102;23;20176;-78
2024/01/09 06:06:23;;;;;;;18.13;12.32;;;-5.00;99.90;;;;;;6157592;23;20224;-78
2024/01/09 06:08:53;;;;;;;17.45;11.50;;;-5.00;99.90;;;;;;6157912;23;20264;-78
2024/01/09 06:11:26;;;;;;;18.08;13.20;;;-5.30;99.90;;;;;;6157515;23;20205;-78
2024/01/09 06:14:09;;;;;;;17.70;12.65;;;-5.00;99.90;;;;;;6157162;23;20346;-78
2024/01/09 06:16:42;;;;;;;19.10;12.75;;;-5.00;99.90;;;;;;6160825;23;20252;-80
2024/01/09 06:19:19;;;;;;;16.98;10.75;;;-4.70;99.90;;;;;;6162355;23;20172;-79
2024/01/09 06:21:56;;;;;;;16.92;12.45;;;-5.00;99.90;;;;;;6159974;23;20189;-79
2024/01/09 06:27:47;;;;;;;16.65;12.52;;;-5.00;99.90;;;;;;6160317;23;20168;-79
2024/01/09 06:30:25;;;;;;;16.58;11.05;;;-5.00;99.90;;;;;;6160868;23;20187;-80
2024/01/09 06:33:03;;;;;;;15.95;11.95;;;-4.80;99.90;;;;;;6164930;23;20228;-78
2024/01/09 06:35:52;;;;;;;12.45;10.18;;;-5.00;99.90;;;;;;6160382;23;20192;-80
2024/01/09 06:38:39;;;;;;;15.70;11.00;;;-4.90;99.90;;;;;;6162488;23;20174;-80
2024/01/09 06:41:32;;;;;;;16.60;12.13;;;-5.00;99.90;;;;;;6161675;23;20188;-79
2024/01/09 06:44:24;;;;;;;13.63;11.30;;;-4.80;99.90;;;;;;6162236;23;20169;-78
2024/01/09 06:47:03;;;;;;;15.90;12.32;;;-4.80;99.90;;;;;;6164993;23;20172;-79
2024/01/09 06:49:54;;;;;;;16.77;12.07;;;-4.80;99.90;;;;;;6163248;23;20552;-76
2024/01/09 06:52:36;;;;;;;17.20;12.80;;;-5.10;99.90;;;;;;6132105;23;20204;-77
2024/01/09 06:55:25;;;;;;;16.33;12.20;;;-5.00;99.90;;;;;;6132258;23;20176;-82
2024/01/09 06:58:07;;;;;;;18.90;11.80;;;-5.10;99.90;;;;;;6134001;23;20417;-80
2024/01/09 07:03:32;;;;;;;20.88;12.15;;;-4.90;99.90;;;;;;6132406;23;20205;-81
2024/01/09 07:06:14;;;;;;;18.60;12.67;;;-5.00;99.90;;;;;;6133175;23;20215;-80
2024/01/09 07:08:48;;;;;;;17.90;12.63;;;-5.00;99.90;;;;;;6133867;23;20468;-80
2024/01/09 07:11:29;;;;;;;19.40;12.65;;;-5.00;99.90;;;;;;6132409;23;20193;-81
2024/01/09 07:14:15;;;;;;;17.52;12.55;;;-5.00;99.90;;;;;;6133256;23;20188;-79
2024/01/09 07:16:51;;;;;;;16.17;11.75;;;-4.80;99.90;;;;;;6143015;23;20186;-79
2024/01/09 07:19:25;;;;;;;15.80;12.23;;;-5.00;99.90;;;;;;6142322;23;20166;-80
2024/01/09 07:22:05;;;;;;;20.80;12.35;;;-5.40;99.90;;;;;;6135432;23;20499;-80
2024/01/09 07:24:43;;;;;;;20.23;12.00;;;-5.00;99.90;;;;;;6135483;23;20536;-78
2024/01/09 07:27:16;;;;;;;16.65;12.05;;;-5.00;99.90;;;;;;6131140;23;20209;-78
2024/01/09 07:29:49;;;;;;;20.27;13.55;;;-5.00;99.90;;;;;;6130016;23;20170;-78
2024/01/09 07:32:39;;;;;;;15.43;11.73;;;-5.00;99.90;;;;;;6128913;23;20196;-77
2024/01/09 07:35:12;;;;;;;17.02;12.13;;;-5.00;99.90;;;;;;6128316;23;20220;-77
2024/01/09 07:37:48;;;;;;;15.25;12.45;;;-5.00;99.90;;;;;;6129554;23;20228;-78
2024/01/09 07:40:37;;;;;;;17.30;12.88;;;-4.70;99.90;;;;;;6129216;23;20252;-79
2024/01/09 07:43:26;;;;;;;21.40;12.30;;;-5.00;99.90;;;;;;6130225;23;20190;-79
2024/01/09 07:49:49;;;;;;;16.25;10.85;;;-4.90;99.90;;;;;;6126603;23;20251;-81
2024/01/09 07:52:47;;;;;;;17.23;12.27;;;-4.90;99.90;;;;;;6129682;23;20189;-79
2024/01/09 07:55:48;;;;;;;18.92;12.40;;;-5.10;99.90;;;;;;6132175;23;20197;-81
2024/01/09 07:58:45;;;;;;;20.63;13.18;;;-4.80;99.90;;;;;;6132332;23;20189;-78
2024/01/09 08:01:42;;;;;;;16.13;12.27;;;-4.70;99.90;;;;;;6130511;23;20724;-81
2024/01/09 08:04:13;;;;;;;15.73;12.37;;;-4.70;99.90;;;;;;6130955;23;20413;-80
2024/01/09 08:07:04;;;;;;;18.17;12.55;;;-4.70;99.90;;;;;;6128642;23;20445;-78
2024/01/09 08:12:50;;;;;;;14.80;10.77;;;-4.70;99.90;;;;;;6123894;23;20802;-77
2024/01/09 08:15:43;;;;;;;17.02;11.88;;;-4.70;99.90;;;;;;6125762;23;20414;-78
2024/01/09 08:18:17;;;;;;;15.57;12.18;;;-4.60;99.90;;;;;;6129519;23;20169;-81
2024/01/09 08:21:03;;;;;;;14.13;12.37;;;-4.60;99.90;;;;;;6129989;23;20228;-79
2024/01/09 08:24:22;;;;;;;17.48;11.85;;;-4.40;99.90;;;;;;6127979;23;20433;-77
2024/01/09 08:27:01;;;;;;;22.88;12.43;;;-4.60;99.90;;;;;;6093220;23;20197;-81
2024/01/09 08:29:40;;;;;;;18.30;11.30;;;-4.60;99.90;;;;;;6128439;23;20172;-80
2024/01/09 08:32:52;;;;;;;18.40;12.97;;;-4.60;99.90;;;;;;6127828;23;20189;-78
2024/01/09 08:35:29;;;;;;;17.13;12.20;;;-4.50;99.90;;;;;;6129531;23;20530;-82
2024/01/09 08:41:05;;;;;;;15.90;11.93;;;-4.40;99.90;;;;;;6122632;23;20178;-83
2024/01/09 08:44:16;;;;;;;16.63;12.47;;;-4.40;99.90;;;;;;6139652;23;20401;-78
2024/01/09 08:47:15;;;;;;;18.55;13.32;;;-4.40;99.90;;;;;;6138177;23;20472;-79
2024/01/09 08:50:03;;;;;;;17.08;12.70;;;-4.30;99.90;;;;;;6137506;23;20178;-80
2024/01/09 08:58:53;;;;;;;18.83;13.13;;;-3.90;99.90;;;;;;6149902;23;20417;-79
2024/01/09 09:01:51;;;;;;;17.50;12.43;;;-3.70;99.90;;;;;;6158792;23;20458;-77
2024/01/09 09:14:27;;;;;;;19.50;12.10;;;-2.80;99.90;;;;;;6155301;23;20429;-81
2024/01/09 09:20:48;;;;;;;15.53;12.03;;;-1.90;99.90;;;;;;6023526;23;20396;-79
2024/01/09 09:23:30;;;;;;;17.70;12.23;;;-1.70;99.90;;;;;;6073117;23;20953;-81
2024/01/09 09:26:17;;;;;;;16.90;12.20;;;-2.20;99.90;;;;;;6077155;23;20439;-78
2024/01/09 09:29:26;;;;;;;20.83;13.70;;;-1.70;99.90;;;;;;6147530;23;20418;-79
2024/01/09 09:35:23;;;;;;;18.53;13.33;;;-1.20;99.90;;;;;;6148368;23;20408;-79
2024/01/09 09:38:22;;;;;;;17.30;13.07;;;-1.20;99.90;;;;;;6154159;23;20427;-80
2024/01/09 09:44:25;;;;;;;21.53;13.63;;;-0.90;99.90;;;;;;6163452;23;20475;-78
2024/01/09 09:47:40;;;;;;;17.27;13.40;;;-0.90;99.90;;;;;;6165721;23;20466;-80
2024/01/09 09:53:47;;;;;;;18.90;13.07;;;-1.00;99.90;;;;;;6058498;23;20463;-81
2024/01/09 10:06:58;;;;;;;19.90;13.20;;;-0.20;99.90;;;;;;6135258;23;20510;-80
2024/01/09 10:12:48;;;;;;;17.07;12.67;;;0.20;99.90;;;;;;6161039;23;20435;-79
2024/01/09 10:15:43;;;;;;;19.60;12.47;;;0.50;99.90;;;;;;6170442;23;20420;-79
2024/01/09 10:18:20;;;;;;;15.70;11.47;;;0.70;99.90;;;;;;6171296;23;20444;-80
2024/01/09 10:21:12;;;;;;;16.70;13.60;;;0.30;99.90;;;;;;6169045;23;20404;-80
2024/01/09 10:27:03;;;;;;;17.33;13.07;;;0.90;99.90;;;;;;6189270;23;20443;-79
2024/01/09 10:29:51;;;;;;;17.20;13.03;;;1.20;99.90;;;;;;6192913;23;20418;-80
2024/01/09 10:32:32;;;;;;;17.77;14.67;;;0.70;99.90;;;;;;6193010;23;20427;-81
2024/01/09 10:35:17;;;;;;;18.60;12.20;;;0.80;99.90;;;;;;6194011;23;20418;-79
2024/01/09 10:38:02;;;;;;;17.90;13.00;;;0.80;99.90;;;;;;6195605;23;20438;-80
2024/01/09 10:40:56;;;;;;;15.43;11.83;;;1.00;99.90;;;;;;6195878;23;20407;-82
2024/01/09 10:43:30;;;;;;;17.03;13.17;;;0.70;99.90;;;;;;6193448;23;20461;-79
2024/01/09 10:46:05;;;;;;;17.60;13.30;;;1.00;99.90;;;;;;6196934;23;20485;-80
2024/01/09 10:48:43;;;;;;;18.83;13.20;;;1.10;99.90;;;;;;6201232;23;20470;-78
2024/01/09 10:51:36;;;;;;;19.87;11.80;;;0.80;99.90;;;;;;6204621;23;20438;-80
2024/01/09 10:54:11;;;;;;;18.47;13.17;;;0.60;99.90;;;;;;6203562;23;20415;-79
2024/01/09 10:56:43;;;;;;;15.57;13.03;;;0.60;99.90;;;;;;6204003;23;20451;-79
2024/01/09 10:59:18;;;;;;;18.70;13.33;;;1.00;99.90;;;;;;6201117;23;20425;-79
2024/01/09 11:01:54;;;;;;;17.73;12.97;;;1.40;99.90;;;;;;6197854;23;20434;-79
2024/01/09 11:04:34;;;;;;;17.70;12.77;;;1.70;99.90;;;;;;6197868;23;20411;-78
2024/01/09 11:10:13;;;;;;;15.80;12.50;;;1.70;99.90;;;;;;6192570;23;20392;-80
2024/01/09 11:13:02;;;;;;;14.10;12.17;;;2.00;99.90;;;;;;6197080;23;20926;-80
2024/01/09 11:15:47;;;;;;;17.73;13.10;;;1.90;99.90;;;;;;6196550;23;20407;-78
2024/01/09 11:18:32;;;;;;;23.70;18.50;;;1.60;99.90;;;;;;6195752;23;20549;-80
2024/01/09 11:21:21;;;;;;;17.77;13.10;;;2.00;99.90;;;;;;6194208;23;20442;-78
2024/01/09 11:24:00;;;;;;;16.60;13.30;;;1.80;99.90;;;;;;6194224;23;20475;-80
2024/01/09 11:26:49;;;;;;;16.23;12.83;;;1.90;99.90;;;;;;6167655;23;20439;-80
2024/01/09 11:29:50;;;;;;;19.10;12.67;;;1.30;99.90;;;;;;6195862;23;20435;-79
2024/01/09 11:32:32;;;;;;;16.40;12.23;;;1.30;99.90;;;;;;6195662;23;20826;-80
2024/01/09 11:35:41;;;;;;;14.30;12.03;;;1.40;99.90;;;;;;6194662;23;20438;-79
2024/01/09 11:38:45;;;;;;;13.37;11.90;;;1.30;99.90;;;;;;6195656;23;20918;-80
2024/01/09 11:41:31;;;;;;;16.50;11.13;;;1.60;99.90;;;;;;6197190;23;20438;-79
2024/01/09 11:47:40;;;;;;;15.30;11.73;;;1.10;99.90;;;;;;6196307;23;20435;-81
2024/01/09 11:50:47;;;;;;;14.80;11.60;;;1.20;99.90;;;;;;6197678;23;20458;-80
2024/01/09 11:56:17;;;;;;;16.10;12.10;;;1.50;99.90;;;;;;6196230;23;20471;-79
2024/01/09 11:59:21;;;;;;;13.43;11.93;;;1.30;99.90;;;;;;6201759;23;20410;-80
2024/01/09 12:02:22;;;;;;;12.93;11.00;;;1.40;99.90;;;;;;6194121;23;20769;-81
2024/01/09 12:05:19;;;;;;;14.63;11.70;;;1.40;99.90;;;;;;6193561;23;20411;-82
2024/01/09 12:08:21;;;;;;;12.97;11.07;;;0.90;99.90;;;;;;6196156;23;20831;-80
2024/01/09 12:11:24;;;;;;;13.63;11.73;;;1.00;99.90;;;;;;6199559;23;20519;-79
2024/01/09 12:14:32;;;;;;;;;;;;;;;;;;;;;
2024/01/09 12:17:29;;;;;;;12.63;10.90;;;1.10;99.90;;;;;;6198802;23;20441;-78
2024/01/09 12:20:31;;;;;;;14.53;12.13;;;0.90;99.90;;;;;;6200644;23;20411;-81
2024/01/09 12:23:03;;;;;;;15.97;11.10;;;0.80;99.90;;;;;;6200053;23;20490;-79
2024/01/09 12:25:35;;;;;;;14.77;11.13;;;0.80;99.90;;;;;;6196221;23;20411;-80
2024/01/09 12:28:08;;;;;;;15.50;11.80;;;0.60;99.90;;;;;;6191170;23;20526;-80
2024/01/09 12:30:40;;;;;;;17.30;11.80;;;0.70;99.90;;;;;;6194459;23;20411;-80
2024/01/09 12:33:12;;;;;;;13.40;11.03;;;0.90;99.90;;;;;;6172709;23;20459;-79
2024/01/09 12:36:04;;;;;;;14.03;11.07;;;1.00;99.90;;;;;;6194677;23;20414;-82
2024/01/09 12:38:42;;;;;;;15.70;11.50;;;1.00;99.90;;;;;;6192507;23;20412;-79
2024/01/09 12:41:45;;;;;;;16.70;11.67;;;1.00;99.90;;;;;;6198408;23;20457;-79
2024/01/09 12:44:24;;;;;;;15.50;11.40;;;1.00;99.90;;;;;;6195534;23;20419;-79
2024/01/09 12:50:00;;;;;;;17.73;11.73;;;0.90;99.90;;;;;;6181940;23;20483;-78
2024/01/09 12:52:31;;;;;;;12.93;10.97;;;1.10;99.90;;;;;;6196245;23;20515;-79
2024/01/09 12:55:00;;;;;;;14.10;10.83;;;0.90;99.90;;;;;;6196957;23;20419;-80
2024/01/09 12:57:51;;;;;;;;;;;;;;;;;;;;;
2024/01/09 13:00:29;;;;;;;12.90;10.90;;;0.90;99.90;;;;;;6190802;23;20410;-80
2024/01/09 13:02:57;;;;;;;18.43;11.10;;;1.00;99.90;;;;;;6187096;23;20477;-80
2024/01/09 13:05:47;;;;;;;14.20;11.17;;;1.30;99.90;;;;;;6187670;23;20461;-80
2024/01/09 13:08:21;;;;;;;13.90;10.73;;;1.10;99.90;;;;;;6189115;23;20435;-78
2024/01/09 13:11:12;;;;;;;16.97;11.03;;;1.00;99.90;;;;;;6189189;23;20434;-79
2024/01/09 13:13:52;;;;;;;16.20;10.90;;;1.10;99.90;;;;;;6188578;23;20461;-79
2024/01/09 13:16:43;;;;;;;14.00;11.30;;;1.20;99.90;;;;;;6187867;23;20450;-79
2024/01/09 13:19:29;;;;;;;17.97;12.30;;;1.10;99.90;;;;;;6188336;23;20479;-77
2024/01/09 13:22:14;;;;;;;12.50;10.33;;;1.20;99.90;;;;;;6187028;23;20506;-81
2024/01/09 13:24:48;;;;;;;15.57;12.07;;;1.20;99.90;;;;;;6188348;23;20849;-78
2024/01/09 13:27:26;;;;;;;16.43;10.77;;;1.40;99.90;;;;;;6188736;23;20443;-79
2024/01/09 13:29:58;;;;;;;15.70;12.10;;;1.10;99.90;;;;;;6194712;23;20411;-78
2024/01/09 13:32:29;;;;;;;14.53;11.13;;;1.30;99.90;;;;;;6194909;23;20487;-78
2024/01/09 13:35:06;;;;;;;13.20;10.87;;;1.10;99.90;;;;;;6192792;23;20411;-81
2024/01/09 13:37:36;;;;;;;16.77;10.90;;;1.10;99.90;;;;;;6189081;23;20414;-79
2024/01/09 13:40:10;;;;;;;14.00;11.10;;;1.10;99.90;;;;;;6193059;23;20413;-79
2024/01/09 13:42:49;;;;;;;12.93;10.03;;;1.20;99.90;;;;;;6199103;23;20530;-79
2024/01/09 13:45:25;;;;;;;12.87;10.87;;;1.10;99.90;;;;;;6197246;23;20415;-80
2024/01/09 13:48:02;;;;;;;13.57;10.67;;;1.20;99.90;;;;;;6198565;23;20440;-78
2024/01/09 13:50:34;;;;;;;13.30;10.30;;;1.20;99.90;;;;;;6199650;23;20481;-77
2024/01/09 13:53:01;;;;;;;14.87;10.10;;;1.30;99.90;;;;;;6198356;23;20506;-80
2024/01/09 13:55:33;;;;;;;13.70;10.03;;;1.30;99.90;;;;;;6196287;23;20431;-77
2024/01/09 13:58:09;;;;;;;12.40;10.10;;;0.90;99.90;;;;;;6195964;23;20407;-78
2024/01/09 14:00:40;;;;;;;15.13;11.17;;;1.20;99.90;;;;;;6197078;23;20426;-78
2024/01/09 14:03:08;;;;;;;13.40;11.00;;;1.20;99.90;;;;;;6194569;23;20486;-81
2024/01/09 14:05:41;;;;;;;14.30;10.90;;;1.20;99.90;;;;;;6193748;23;20441;-78
2024/01/09 14:08:12;;;;;;;17.03;11.53;;;1.20;99.90;;;;;;6190945;23;20444;-80
2024/01/09 14:32:12;;;;;;;12.60;10.60;;;1.10;99.90;;;;;;5972870;23;20489;-81
2024/01/09 14:45:49;;;;;;;13.50;10.30;;;1.00;99.90;;;;;;6177242;23;20391;-80
2024/01/09 14:48:22;;;;;;;12.93;10.40;;;1.00;99.90;;;;;;6178538;23;20435;-79
2024/01/09 17:34:07;;;;;;;;;;;;;;;;;;;;;
2024/01/09 18:32:44;;;;;;;20.33;13.07;;;-1.20;99.90;;;;;;6070131;23;20458;-80
2024/01/09 18:36:00;;;;;;;16.80;13.10;;;-1.30;99.90;;;;;;6161429;23;20536;-80
2024/01/09 19:32:50;;;;;;;23.33;18.00;;;-1.60;99.90;;;;;;5858391;24;20433;-78
2024/01/09 19:47:43;;;;;;;25.50;15.10;;;-1.80;99.90;;;;;;5848252;24;20419;-78
2024/01/09 21:10:25;;;;;;;18.70;14.63;;;-2.20;99.90;;;;;;5977517;23;20418;-77
2024/01/09 21:12:59;;;;;;;18.40;14.13;;;-2.50;99.90;;;;;;6131498;23;20421;-79
2024/01/09 21:15:28;;;;;;;30.60;19.13;;;-2.50;99.90;;;;;;6143324;23;20401;-79
2024/01/09 21:17:57;;;;;;;25.43;19.13;;;-2.50;99.90;;;;;;6141831;23;20836;-77
2024/01/09 21:20:47;;;;;;;;;;;;;;;;;;;;;
2024/01/09 21:29:56;;;;;;;31.53;21.37;;;-2.50;99.90;;;;;;6107594;23;20476;-81
2024/01/09 21:32:48;;;;;;;29.17;17.30;;;-2.50;99.90;;;;;;6142343;23;20427;-77
2024/01/09 21:35:40;;;;;;;22.23;15.60;;;-2.50;99.90;;;;;;6138798;23;20729;-77
2024/01/09 21:38:09;;;;;;;21.20;16.00;;;-2.60;99.90;;;;;;6136025;23;20382;-80
2024/01/09 21:40:50;;;;;;;21.87;14.70;;;-2.60;99.90;;;;;;6133072;23;20456;-78
2024/01/09 21:43:31;;;;;;;21.27;15.30;;;-2.60;99.90;;;;;;6133760;23;20490;-80
2024/01/09 21:47:15;;;;;;;20.10;14.63;;;-2.70;99.90;;;;;;6134381;23;20423;-81
2024/01/09 21:53:28;;;;;;;16.03;13.70;;;-2.70;99.90;;;;;;6072305;23;20479;-79
2024/01/09 22:03:17;;;;;;;19.43;13.97;;;-3.10;99.90;;;;;;5837437;24;20442;-78
2024/01/09 22:06:32;;;;;;;20.63;15.03;;;-2.80;99.90;;;;;;6044258;23;20417;-79
2024/01/09 22:09:52;;;;;;;17.03;15.27;;;-3.10;99.90;;;;;;6128747;23;20436;-78
2024/01/09 22:16:21;;;;;;;21.77;14.90;;;-3.10;99.90;;;;;;6034743;23;20390;-78
2024/01/09 22:22:28;;;;;;;20.47;14.63;;;-2.60;99.90;;;;;;6144881;23;20758;-78
2024/01/09 22:25:07;;;;;;;19.60;13.73;;;-2.80;99.90;;;;;;6224112;23;20729;-80